Terminal Aerodrome Forecast
Issued by NWS

Home | Current Version | Previous Version | Text Only | Print | Product List | Glossary Off
Versions: 1 2 3 4 5 6 7 8 9 10 11 12 13

000
FTUS45 KGGW 020500
TAFSDY
TAF
KSDY 020520Z 0206/0306 VRB05KT P6SM SCT200
     FM021800 28014KT P6SM SCT200
     FM021900 29015G25KT P6SM SCT200
     FM030100 32010KT P6SM BKN150
      AMD LTD TO CLD VIS AND WIND=

USA.gov is the U.S. government's official web portal to all federal, state and local government web resources and services.